Time;durP1;ratioP1;P1;durP2;ratioP2;P2;SDS_P1;SDS_P2;PMS_P1;PMS_P2;Temp;Humidity;BMP_temperature;BMP_pressure;BME280_temperature;BME280_humidity;BME280_pressure;Samples;Min_cycle;Max_cycle;Signal;HPM_P1;HPM_P2
2023/10/24 00:00:58;;;;;;;11.20;5.15;;;;;;;12.05;100.00;100118.72;5031112;28;20044;-63
2023/10/24 00:03:45;;;;;;;8.73;4.45;;;;;;;12.04;100.00;100122.56;5068378;28;20187;-62
2023/10/24 00:06:34;;;;;;;9.48;4.13;;;;;;;12.03;100.00;100119.03;5058144;28;20416;-62
2023/10/24 00:09:22;;;;;;;8.70;4.47;;;;;;;12.02;100.00;100111.13;5071275;28;20045;-62
2023/10/24 00:12:10;;;;;;;10.85;4.70;;;;;;;12.02;100.00;100109.22;5072308;28;20037;-63
2023/10/24 00:14:58;;;;;;;10.13;4.93;;;;;;;12.02;100.00;100111.94;5069652;28;20385;-63
2023/10/24 00:17:46;;;;;;;9.18;4.63;;;;;;;12.01;100.00;100121.25;5068520;28;20768;-63
2023/10/24 00:20:34;;;;;;;11.35;4.60;;;;;;;12.03;100.00;100119.03;5072297;28;20079;-65
2023/10/24 00:23:22;;;;;;;8.57;4.88;;;;;;;12.00;100.00;100113.34;5071495;28;20164;-64
2023/10/24 00:26:10;;;;;;;8.88;4.82;;;;;;;11.98;100.00;100113.66;5056054;28;20094;-63
2023/10/24 00:29:02;;;;;;;8.55;4.38;;;;;;;11.98;100.00;100110.94;5071376;28;20497;-64
2023/10/24 00:31:50;;;;;;;11.50;4.53;;;;;;;11.99;100.00;100100.81;5070562;28;20185;-64
2023/10/24 00:34:38;;;;;;;11.38;5.00;;;;;;;11.96;100.00;100106.88;5055455;28;20048;-62
2023/10/24 00:37:27;;;;;;;11.60;5.20;;;;;;;11.97;100.00;100106.56;5044591;28;20520;-62
2023/10/24 00:40:15;;;;;;;9.00;4.70;;;;;;;11.98;100.00;100107.38;5038228;28;20080;-63
2023/10/24 00:43:04;;;;;;;14.63;4.90;;;;;;;11.99;100.00;100101.63;5047205;28;20127;-63
2023/10/24 00:45:52;;;;;;;9.25;4.70;;;;;;;12.00;100.00;100107.88;5042653;28;20086;-63
2023/10/24 00:48:40;;;;;;;10.10;5.10;;;;;;;11.98;100.00;100110.94;5070992;28;20408;-63
2023/10/24 00:51:28;;;;;;;12.43;4.82;;;;;;;11.97;100.00;100105.75;5057663;28;20123;-62
2023/10/24 00:54:17;;;;;;;10.27;4.13;;;;;;;11.96;100.00;100104.94;5072259;28;20051;-63
2023/10/24 00:57:06;;;;;;;8.68;4.43;;;;;;;11.97;100.00;100108.47;5070798;28;20094;-63
2023/10/24 00:59:55;;;;;;;7.80;3.80;;;;;;;11.98;100.00;100105.47;5047565;28;20056;-65
2023/10/24 01:02:44;;;;;;;10.02;4.13;;;;;;;12.01;100.00;100115.00;5059824;28;20050;-62
2023/10/24 01:05:32;;;;;;;9.10;4.28;;;;;;;12.02;100.00;100122.06;5073847;28;20044;-63
2023/10/24 01:08:20;;;;;;;10.60;4.30;;;;;;;12.04;100.00;100117.13;5062247;28;20044;-64
2023/10/24 01:11:09;;;;;;;6.38;3.75;;;;;;;12.03;100.00;100107.31;5075623;28;20512;-63
2023/10/24 01:13:59;;;;;;;9.20;4.00;;;;;;;12.02;100.00;100120.13;5032719;28;20519;-63
2023/10/24 01:16:47;;;;;;;7.00;4.00;;;;;;;12.04;100.00;100117.94;5059864;28;20056;-63
2023/10/24 01:19:35;;;;;;;7.28;3.50;;;;;;;12.04;100.00;100106.19;5047437;28;20044;-63
2023/10/24 01:22:23;;;;;;;8.77;3.53;;;;;;;12.02;100.00;100106.47;5059780;28;20053;-63
2023/10/24 01:25:14;;;;;;;8.07;3.60;;;;;;;12.04;100.00;100108.94;5070902;28;20120;-64
2023/10/24 01:28:02;;;;;;;6.93;3.20;;;;;;;12.06;100.00;100102.06;5063713;28;20040;-63
2023/10/24 01:30:50;;;;;;;6.45;3.17;;;;;;;12.05;100.00;100107.81;5046909;28;20510;-63
2023/10/24 01:33:38;;;;;;;6.95;3.33;;;;;;;12.05;100.00;100103.19;5074524;28;20048;-62
2023/10/24 01:36:26;;;;;;;7.47;3.15;;;;;;;12.05;100.00;100105.91;5074006;28;20056;-64
2023/10/24 01:39:14;;;;;;;6.57;3.08;;;;;;;12.05;100.00;100100.44;5051197;28;20041;-63
2023/10/24 01:42:02;;;;;;;7.70;3.30;;;;;;;12.04;100.00;100103.47;5074415;28;20043;-63
2023/10/24 01:44:50;;;;;;;5.15;3.00;;;;;;;12.04;100.00;100104.28;5073838;28;20049;-63
2023/10/24 01:47:38;;;;;;;6.20;3.00;;;;;;;12.07;100.00;100108.31;5041447;28;20061;-64
2023/10/24 01:50:26;;;;;;;6.43;2.90;;;;;;;12.05;100.00;100113.28;5053717;28;20053;-63
2023/10/24 01:53:14;;;;;;;4.60;3.03;;;;;;;12.04;100.00;100104.28;5028441;28;20073;-63
2023/10/24 01:56:02;;;;;;;3.88;2.70;;;;;;;12.04;100.00;100107.00;5059744;28;20131;-63
2023/10/24 01:58:50;;;;;;;5.90;3.10;;;;;;;12.05;100.00;100110.53;5060789;28;20044;-62
2023/10/24 02:01:39;;;;;;;6.43;2.97;;;;;;;12.05;100.00;100100.44;5039546;28;20425;-63
2023/10/24 02:04:27;;;;;;;4.90;2.90;;;;;;;12.04;100.00;100098.00;5039277;28;20056;-64
2023/10/24 02:07:15;;;;;;;9.32;3.10;;;;;;;12.02;100.00;100090.09;5064912;28;20040;-63
2023/10/24 02:10:05;;;;;;;3.75;2.78;;;;;;;12.01;100.00;100090.41;5073717;28;20093;-63
2023/10/24 02:12:53;;;;;;;4.95;2.70;;;;;;;12.04;100.00;100098.81;5073431;28;20141;-63
2023/10/24 02:15:41;;;;;;;4.82;2.97;;;;;;;12.04;100.00;100098.81;5057943;28;20052;-63
2023/10/24 02:18:29;;;;;;;4.75;2.83;;;;;;;12.02;100.00;100095.56;5074067;28;20080;-64
2023/10/24 02:21:17;;;;;;;5.13;3.08;;;;;;;12.04;100.00;100095.28;5059246;28;20055;-63
2023/10/24 02:24:05;;;;;;;8.68;3.25;;;;;;;12.05;100.00;100096.88;5072336;28;20047;-63
2023/10/24 02:26:53;;;;;;;6.68;3.40;;;;;;;12.04;100.00;100098.81;5073598;28;20485;-63
2023/10/24 02:29:41;;;;;;;4.30;3.00;;;;;;;12.03;100.00;100082.75;5072099;28;20524;-63
2023/10/24 02:32:29;;;;;;;6.85;3.30;;;;;;;12.02;100.00;100089.28;5074185;28;20607;-63
2023/10/24 02:35:17;;;;;;;4.13;2.90;;;;;;;12.01;100.00;100102.16;5040908;28;20041;-64
2023/10/24 02:38:06;;;;;;;4.90;3.40;;;;;;;12.02;100.00;100102.94;5062320;28;20049;-63
2023/10/24 02:40:55;;;;;;;7.40;3.30;;;;;;;12.03;100.00;100102.66;5042819;28;20044;-64
2023/10/24 02:43:43;;;;;;;4.25;3.10;;;;;;;12.02;100.00;100105.69;5073657;28;20053;-63
2023/10/24 02:46:33;;;;;;;4.30;2.92;;;;;;;12.01;100.00;100117.72;5074178;28;20548;-63
2023/10/24 02:49:21;;;;;;;5.70;3.20;;;;;;;12.04;100.00;100108.94;5059719;28;20041;-62
2023/10/24 02:52:09;;;;;;;8.07;3.67;;;;;;;12.02;100.00;100111.94;5070835;28;20056;-63
2023/10/24 02:54:57;;;;;;;6.43;3.42;;;;;;;12.00;100.00;100122.38;5041919;28;20053;-64
2023/10/24 02:57:45;;;;;;;7.28;3.30;;;;;;;12.05;100.00;100116.84;5045885;28;20520;-62
2023/10/24 03:00:33;;;;;;;3.97;2.90;;;;;;;12.03;100.00;100124.50;5074119;28;20181;-63
2023/10/24 03:03:21;;;;;;;4.88;2.63;;;;;;;12.02;100.00;100127.53;5060859;28;20066;-63
2023/10/24 03:06:17;;;;;;;4.60;2.67;;;;;;;12.00;100.00;100124.28;5059732;28;20068;-63
2023/10/24 03:09:05;;;;;;;4.05;3.05;;;;;;;11.98;100.00;100127.31;5039148;28;20127;-65
2023/10/24 03:11:53;;;;;;;3.53;2.70;;;;;;;11.97;100.00;100125.66;5027587;28;20084;-63
2023/10/24 03:14:41;;;;;;;2.97;2.45;;;;;;;11.98;100.00;100121.84;5041697;28;20111;-63
2023/10/24 03:17:29;;;;;;;3.38;2.67;;;;;;;11.96;100.00;100134.16;5061383;28;20068;-64
2023/10/24 03:20:17;;;;;;;4.43;2.97;;;;;;;11.98;100.00;100134.66;5085141;28;20056;-62
2023/10/24 03:23:05;;;;;;;4.50;3.00;;;;;;;11.97;100.00;100136.59;5081430;28;20106;-63
2023/10/24 03:25:53;;;;;;;3.42;2.47;;;;;;;11.96;100.00;100134.16;5089924;28;20052;-61
2023/10/24 03:28:41;;;;;;;6.15;2.72;;;;;;;11.93;100.00;100130.91;5086926;28;20424;-57
2023/10/24 03:31:30;;;;;;;5.07;2.95;;;;;;;11.92;100.00;100140.19;5078325;28;20044;-63
2023/10/24 03:34:18;;;;;;;5.07;3.15;;;;;;;11.91;100.00;100130.41;5059250;28;20389;-62
2023/10/24 03:37:07;;;;;;;4.45;2.83;;;;;;;11.93;100.00;100135.56;5071897;28;20040;-63
2023/10/24 03:39:55;;;;;;;4.03;3.00;;;;;;;11.92;100.00;100123.00;5057911;28;20091;-63
2023/10/24 03:42:43;;;;;;;4.72;3.47;;;;;;;11.89;100.00;100124.41;5058602;28;20041;-63
2023/10/24 03:45:31;;;;;;;5.45;3.80;;;;;;;11.85;100.00;100126.06;5070911;28;20040;-64
2023/10/24 03:48:19;;;;;;;5.95;3.90;;;;;;;11.80;100.00;100126.16;5069552;28;20056;-64
2023/10/24 03:51:07;;;;;;;5.63;3.80;;;;;;;11.79;100.00;100123.72;5072044;28;20047;-63
2023/10/24 03:53:55;;;;;;;5.40;3.67;;;;;;;11.78;100.00;100128.34;5071936;28;20040;-63
2023/10/24 03:56:44;;;;;;;4.50;3.35;;;;;;;11.81;100.00;100138.69;5053447;28;20049;-63
2023/10/24 03:59:32;;;;;;;5.15;3.50;;;;;;;11.86;100.00;100135.91;5038729;28;20041;-63
2023/10/24 04:02:20;;;;;;;5.10;3.22;;;;;;;11.87;100.00;100134.00;5053533;28;20045;-64
2023/10/24 04:05:09;;;;;;;4.45;3.50;;;;;;;11.86;100.00;100135.91;5056019;28;20052;-64
2023/10/24 04:07:57;;;;;;;6.65;3.20;;;;;;;11.86;100.00;100135.91;5069486;28;20044;-63
2023/10/24 04:10:45;;;;;;;4.97;3.40;;;;;;;11.84;100.00;100131.84;5068676;28;20056;-62
2023/10/24 04:13:33;;;;;;;5.30;3.10;;;;;;;11.84;100.00;100132.66;5071399;28;20044;-63
2023/10/24 04:16:21;;;;;;;6.68;3.65;;;;;;;11.85;100.00;100131.53;5071908;28;20044;-64
2023/10/24 04:19:10;;;;;;;3.92;3.00;;;;;;;11.86;100.00;100127.72;5045293;28;20103;-64
2023/10/24 04:21:58;;;;;;;3.20;2.75;;;;;;;11.87;100.00;100129.34;5072510;28;20044;-62
2023/10/24 04:24:46;;;;;;;4.50;3.30;;;;;;;11.86;100.00;100118.72;5070128;28;20051;-64
2023/10/24 04:27:34;;;;;;;5.13;3.35;;;;;;;11.86;100.00;100122.25;5071355;28;20049;-64
2023/10/24 04:30:22;;;;;;;4.53;3.10;;;;;;;11.86;100.00;100122.25;5056771;28;20076;-64
2023/10/24 04:33:10;;;;;;;7.60;3.35;;;;;;;11.85;100.00;100101.50;5054427;28;20509;-62
2023/10/24 04:35:58;;;;;;;4.97;3.30;;;;;;;11.83;100.00;100098.25;5061489;28;20420;-63
2023/10/24 04:38:46;;;;;;;4.82;3.25;;;;;;;11.84;100.00;100099.91;5059948;28;20099;-64
2023/10/24 04:41:34;;;;;;;4.90;3.30;;;;;;;11.84;100.00;100088.97;5067182;28;20165;-64
2023/10/24 04:44:22;;;;;;;5.10;3.40;;;;;;;11.84;100.00;100093.63;5075399;28;20109;-63
2023/10/24 04:47:10;;;;;;;5.47;3.45;;;;;;;11.80;100.00;100084.41;5074954;28;20555;-63
2023/10/24 04:49:58;;;;;;;4.95;3.58;;;;;;;11.79;100.00;100102.69;5061012;28;20472;-62
2023/10/24 04:52:48;;;;;;;5.15;3.63;;;;;;;11.79;100.00;100107.34;5061164;28;20052;-62
2023/10/24 04:55:36;;;;;;;4.88;3.70;;;;;;;11.80;100.00;100109.75;5064832;28;20106;-64
2023/10/24 04:58:24;;;;;;;8.10;3.53;;;;;;;11.79;100.00;100102.69;5054738;28;20416;-63
2023/10/24 05:01:13;;;;;;;5.57;3.72;;;;;;;11.80;100.00;100101.56;5045471;28;20404;-63
2023/10/24 05:04:01;;;;;;;5.18;3.60;;;;;;;11.79;100.00;100102.69;5074255;28;20135;-63
2023/10/24 05:06:49;;;;;;;4.32;3.25;;;;;;;11.81;100.00;100107.84;5073244;28;20130;-63
2023/10/24 05:09:37;;;;;;;5.90;3.45;;;;;;;11.78;100.00;100114.69;5061739;28;20063;-62
2023/10/24 05:12:25;;;;;;;4.70;3.55;;;;;;;11.79;100.00;100113.63;5072293;28;20033;-63
2023/10/24 05:15:13;;;;;;;4.53;3.33;;;;;;;11.80;100.00;100109.75;5074940;28;20101;-63
2023/10/24 05:18:00;;;;;;;4.55;3.20;;;;;;;11.81;100.00;100111.41;5060339;28;20044;-63
2023/10/24 05:20:49;;;;;;;5.00;3.55;;;;;;;11.79;100.00;100116.34;5075334;28;20181;-62
2023/10/24 05:23:37;;;;;;;4.93;3.15;;;;;;;11.85;100.00;100120.63;5039735;28;20074;-64
2023/10/24 05:26:25;;;;;;;4.60;3.13;;;;;;;11.89;100.00;100124.41;5054454;28;20171;-64
2023/10/24 05:29:13;;;;;;;4.60;3.17;;;;;;;11.88;100.00;100113.78;5041030;28;20041;-62
2023/10/24 05:32:03;;;;;;;4.00;2.47;;;;;;;12.01;100.00;100104.06;5048482;28;20171;-65
2023/10/24 05:34:51;;;;;;;4.60;3.33;;;;;;;11.98;100.00;100110.09;5074002;28;20496;-65
2023/10/24 05:37:40;;;;;;;5.00;3.35;;;;;;;11.88;100.00;100111.88;5074453;28;20051;-65
2023/10/24 05:40:30;;;;;;;4.82;3.72;;;;;;;11.84;100.00;100097.16;5037087;28;20055;-65
2023/10/24 05:43:18;;;;;;;5.03;3.58;;;;;;;11.82;100.00;100088.44;5049096;28;20044;-65
2023/10/24 05:46:06;;;;;;;5.13;3.28;;;;;;;11.82;100.00;100087.66;5075343;28;20135;-64
2023/10/24 05:48:54;;;;;;;4.38;3.13;;;;;;;11.78;100.00;100083.88;5074774;28;20068;-65
2023/10/24 05:51:43;;;;;;;3.78;3.22;;;;;;;11.78;100.00;100079.22;5032647;28;20052;-65
2023/10/24 05:54:31;;;;;;;4.20;3.10;;;;;;;11.79;100.00;100091.78;5074578;28;20052;-65
2023/10/24 05:57:19;;;;;;;4.22;3.03;;;;;;;11.83;100.00;100086.53;5075835;28;20045;-66
2023/10/24 06:00:08;;;;;;;5.63;3.38;;;;;;;11.82;100.00;100091.19;4369395;28;10000723;-64
2023/10/24 06:02:56;;;;;;;4.93;3.22;;;;;;;11.79;100.00;100097.25;5044374;28;20179;-65
2023/10/24 06:05:44;;;;;;;4.80;3.20;;;;;;;11.84;100.00;100104.53;5069182;28;20048;-66
2023/10/24 06:08:32;;;;;;;5.22;3.00;;;;;;;11.82;100.00;100098.56;5040574;28;20105;-64
2023/10/24 06:11:20;;;;;;;2.42;2.22;;;;;;;11.84;100.00;100115.47;5064840;28;20045;-65
2023/10/24 06:14:08;;;;;;;4.32;2.65;;;;;;;11.84;100.00;100121.72;5050355;28;20048;-65
2023/10/24 06:16:56;;;;;;;5.68;3.83;;;;;;;11.80;100.00;100114.41;5071103;28;20131;-64
2023/10/24 06:19:46;;;;;;;5.05;3.50;;;;;;;11.79;100.00;100119.06;5055966;28;20412;-68
2023/10/24 06:22:34;;;;;;;5.30;2.95;;;;;;;11.79;100.00;100116.34;5069121;28;20181;-65
2023/10/24 06:25:22;;;;;;;5.70;3.30;;;;;;;11.77;100.00;100104.91;5068470;28;20127;-63
2023/10/24 06:28:10;;;;;;;4.38;3.28;;;;;;;11.75;100.00;100098.91;5069835;28;20075;-65
2023/10/24 06:31:04;;;;;;;4.93;3.20;;;;;;;11.76;100.00;100080.63;5069615;28;20048;-65
2023/10/24 06:33:53;;;;;;;3.20;2.55;;;;;;;11.74;100.00;100083.66;5051245;28;20496;-64
2023/10/24 06:36:41;;;;;;;6.03;3.97;;;;;;;11.75;100.00;100107.09;5062769;28;20052;-64
2023/10/24 06:39:29;;;;;;;3.88;2.72;;;;;;;11.76;100.00;100107.91;5067704;28;20048;-66
2023/10/24 06:42:20;;;;;;;4.63;2.60;;;;;;;11.77;100.00;100123.19;5067094;28;20589;-65
2023/10/24 06:45:10;;;;;;;3.10;2.53;;;;;;;11.77;100.00;100132.19;5066354;28;20092;-65
2023/10/24 06:47:58;;;;;;;4.78;3.10;;;;;;;11.76;100.00;100130.59;5070649;28;20572;-65
2023/10/24 06:50:47;;;;;;;5.45;2.85;;;;;;;11.75;100.00;100128.13;5056952;28;20094;-64
2023/10/24 06:53:36;;;;;;;4.38;3.08;;;;;;;11.69;100.00;100130.13;5070286;28;20047;-65
2023/10/24 06:56:23;;;;;;;3.05;2.75;;;;;;;11.69;100.00;100141.03;5053386;28;20057;-62
2023/10/24 06:59:11;;;;;;;2.97;2.67;;;;;;;11.70;100.00;100129.00;5038306;28;20598;-64
2023/10/24 07:01:59;;;;;;;3.58;2.50;;;;;;;11.71;100.00;100119.69;5044218;28;20127;-66
2023/10/24 07:04:47;;;;;;;5.10;3.38;;;;;;;11.73;100.00;100125.69;5068248;28;20056;-65
2023/10/24 07:07:38;;;;;;;3.42;2.72;;;;;;;11.78;100.00;100128.34;5030828;28;20048;-63
2023/10/24 07:10:27;;;;;;;3.70;2.33;;;;;;;11.83;100.00;100128.28;5071325;28;20055;-62
2023/10/24 07:13:16;;;;;;;4.22;2.75;;;;;;;11.80;100.00;100117.94;5060301;28;20526;-63
2023/10/24 07:16:13;;;;;;;5.90;3.75;;;;;;;11.77;100.00;100110.34;5036392;28;20049;-64
2023/10/24 07:19:01;;;;;;;3.45;2.53;;;;;;;11.86;100.00;100108.59;5062452;28;20123;-65
2023/10/24 07:21:49;;;;;;;4.38;2.90;;;;;;;11.82;100.00;100115.75;5059579;28;20132;-64
2023/10/24 07:24:37;;;;;;;4.63;3.08;;;;;;;11.81;100.00;100122.31;5039906;28;20599;-65
2023/10/24 07:27:26;;;;;;;5.50;3.38;;;;;;;11.80;100.00;100112.50;5072298;28;20493;-62
2023/10/24 07:30:14;;;;;;;6.32;3.40;;;;;;;11.79;100.00;100102.69;5071834;28;20045;-64
2023/10/24 07:33:02;;;;;;;6.25;3.55;;;;;;;11.83;100.00;100117.34;5071763;28;20052;-63
2023/10/24 07:35:50;;;;;;;7.32;3.95;;;;;;;11.81;100.00;100114.13;5051455;28;20044;-63
2023/10/24 07:38:39;;;;;;;6.43;3.83;;;;;;;11.82;100.00;100107.56;5073765;28;20108;-65
2023/10/24 07:41:27;;;;;;;5.85;3.47;;;;;;;11.83;100.00;100111.09;5064861;28;20017;-62
2023/10/24 07:44:15;;;;;;;8.10;3.75;;;;;;;11.83;100.00;100114.63;5060823;28;20108;-63
2023/10/24 07:47:03;;;;;;;7.47;3.95;;;;;;;11.84;100.00;100119.00;5048536;28;20057;-62
2023/10/24 07:49:52;;;;;;;6.68;3.75;;;;;;;11.84;100.00;100116.28;5053729;28;20057;-58
2023/10/24 07:52:40;;;;;;;7.88;3.90;;;;;;;11.84;100.00;100115.47;5086286;28;20048;-61
2023/10/24 07:55:28;;;;;;;10.63;3.83;;;;;;;11.85;100.00;100112.41;5086770;28;20040;-65
2023/10/24 07:58:17;;;;;;;15.88;4.30;;;;;;;11.87;100.00;100102.06;5042961;28;20049;-63
2023/10/24 08:01:05;;;;;;;5.90;3.38;;;;;;;11.85;100.00;100096.03;5043359;28;20153;-64
2023/10/24 08:03:53;;;;;;;13.00;4.85;;;;;;;11.89;100.00;100099.03;5073174;28;20520;-64
2023/10/24 08:06:41;;;;;;;9.35;4.05;;;;;;;11.92;100.00;100106.63;5072817;28;20049;-64
2023/10/24 08:09:29;;;;;;;8.10;4.30;;;;;;;11.89;100.00;100099.03;5072035;28;20048;-64
2023/10/24 08:12:17;;;;;;;8.90;4.20;;;;;;;11.93;100.00;100098.16;5062327;28;20037;-64
2023/10/24 08:15:05;;;;;;;10.18;4.78;;;;;;;11.99;100.00;100089.91;5056160;28;20118;-65
2023/10/24 08:17:54;;;;;;;9.35;4.30;;;;;;;12.07;100.00;100086.47;5057696;28;20052;-65
2023/10/24 08:20:42;;;;;;;8.65;5.00;;;;;;;12.11;100.00;100103.91;5042479;28;20052;-63
2023/10/24 08:23:30;;;;;;;10.48;5.20;;;;;;;12.09;100.00;100106.13;5048240;28;20145;-63
2023/10/24 08:26:19;;;;;;;9.88;5.32;;;;;;;12.05;100.00;100099.63;5057919;28;20497;-64
2023/10/24 08:29:07;;;;;;;9.27;5.38;;;;;;;12.05;100.00;100099.63;5072553;28;20141;-67
2023/10/24 08:31:56;;;;;;;10.70;5.47;;;;;;;12.04;100.00;100100.72;5065523;28;20515;-64
2023/10/24 08:34:48;;;;;;;12.13;5.57;;;;;;;12.06;100.00;100104.00;5049330;28;20045;-64
2023/10/24 08:37:36;;;;;;;10.57;6.30;;;;;;;12.06;100.00;100107.53;5066230;28;20045;-64
2023/10/24 08:40:25;;;;;;;7.13;4.72;;;;;;;12.09;100.00;100117.03;5055197;28;20601;-62
2023/10/24 08:43:15;;;;;;;10.88;5.90;;;;;;;12.18;100.00;100126.19;5061308;28;20043;-64
2023/10/24 08:46:04;;;;;;;12.32;5.57;;;;;;;12.20;100.00;100139.56;5050755;28;20615;-64
2023/10/24 08:48:52;;;;;;;12.65;6.00;;;;;;;12.24;100.00;100144.16;5070980;28;20066;-65
2023/10/24 08:51:40;;;;;;;12.20;5.43;;;;;;;12.29;100.00;100143.22;5038556;28;20142;-64
2023/10/24 08:54:28;;;;;;;13.43;5.78;;;;;;;12.31;100.00;100133.66;5071630;28;20103;-64
2023/10/24 08:57:18;;;;;;;13.25;5.40;;;;;;;12.44;100.00;100128.56;5072975;28;20048;-65
2023/10/24 09:00:10;;;;;;;11.27;4.75;;;;;;;12.39;100.00;100136.78;5072533;28;20570;-64
2023/10/24 09:03:00;;;;;;;9.35;5.05;;;;;;;12.36;100.00;100125.38;5072499;28;20463;-64
2023/10/24 09:05:48;;;;;;;10.55;4.95;;;;;;;12.34;100.00;100127.59;5057338;28;20045;-64
2023/10/24 09:08:37;;;;;;;15.85;4.75;;;;;;;12.43;100.00;100126.91;5059262;28;20043;-65
2023/10/24 09:11:25;;;;;;;12.55;4.35;;;;;;;12.49;100.00;100125.72;5059933;28;20048;-65
2023/10/24 09:14:13;;;;;;;8.68;4.22;;;;;;;12.41;100.00;100126.38;5056426;28;20512;-64
2023/10/24 09:17:04;;;;;;;8.95;5.00;;;;;;;12.33;100.00;100106.84;5052727;28;20511;-64
2023/10/24 09:19:55;;;;;;;9.77;5.15;;;;;;;12.27;100.00;100110.78;5043298;28;20501;-65
2023/10/24 09:22:44;;;;;;;9.88;5.15;;;;;;;12.26;100.00;100117.31;5074451;28;20522;-67
2023/10/24 09:25:32;;;;;;;9.30;4.80;;;;;;;12.26;100.00;100095.47;5061401;28;20048;-64
2023/10/24 09:28:21;;;;;;;9.27;5.15;;;;;;;12.30;100.00;100095.69;5032963;28;20045;-63
2023/10/24 09:31:10;;;;;;;8.20;5.07;;;;;;;12.32;100.00;100094.28;5042158;28;20044;-64
2023/10/24 09:33:59;;;;;;;11.55;5.32;;;;;;;12.34;100.00;100083.88;5049579;28;20444;-64
2023/10/24 09:36:48;;;;;;;8.05;4.00;;;;;;;12.42;100.00;100092.50;5061525;28;20130;-64
2023/10/24 09:39:55;;;;;;;9.95;4.50;;;;;;;12.51;100.00;100098.94;5061070;28;20082;-64
2023/10/24 09:42:43;;;;;;;9.15;4.57;;;;;;;12.53;100.00;100099.41;5046864;28;20507;-64
2023/10/24 09:45:33;;;;;;;10.32;4.35;;;;;;;12.51;100.00;100101.66;5059453;28;20526;-64
2023/10/24 09:48:22;;;;;;;8.93;4.43;;;;;;;12.50;100.00;100108.22;5042732;28;20057;-64
2023/10/24 09:51:11;;;;;;;8.65;4.70;;;;;;;12.52;100.00;100114.19;5034468;28;20045;-65
2023/10/24 09:53:59;;;;;;;10.07;4.75;;;;;;;12.56;100.00;100099.66;5034245;28;20458;-65
2023/10/24 09:56:48;;;;;;;8.57;4.70;;;;;;;12.56;100.00;100094.19;5034979;28;20525;-63
2023/10/24 09:59:37;;;;;;;8.23;4.53;;;;;;;12.61;100.00;100093.28;5014090;28;20104;-64
2023/10/24 10:02:26;;;;;;;12.00;5.28;;;;;;;12.70;100.00;100090.66;5014691;28;20124;-64
2023/10/24 10:05:15;;;;;;;10.10;4.85;;;;;;;12.65;100.00;100083.38;5001321;28;20629;-64
2023/10/24 10:08:07;;;;;;;11.18;4.90;;;;;;;12.61;100.00;100090.53;5030865;28;20137;-66
2023/10/24 10:10:55;;;;;;;8.52;4.63;;;;;;;12.56;100.00;100109.78;5020479;28;20387;-65
2023/10/24 10:13:52;;;;;;;9.07;4.30;;;;;;;12.64;100.00;100102.81;5033684;28;20498;-63
2023/10/24 10:17:00;;;;;;;7.75;4.18;;;;;;;12.65;100.00;100099.78;5034279;28;20049;-64
2023/10/24 10:20:29;;;;;;;7.60;4.05;;;;;;;12.66;100.00;100095.91;5033450;28;20048;-63
2023/10/24 10:23:25;;;;;;;10.43;4.60;;;;;;;12.65;100.00;100105.25;5034367;28;20054;-62
2023/10/24 10:26:21;;;;;;;7.10;3.83;;;;;;;12.66;100.00;100108.78;5033928;28;20048;-64
2023/10/24 10:29:32;;;;;;;12.60;5.00;;;;;;;12.69;100.00;100108.97;5033185;28;20486;-64
2023/10/24 10:32:32;;;;;;;8.50;4.05;;;;;;;12.70;100.00;100109.78;5032955;28;20176;-64
2023/10/24 10:35:53;;;;;;;8.38;4.55;;;;;;;12.74;100.00;100097.97;5013336;28;20045;-66
2023/10/24 10:38:50;;;;;;;7.25;4.28;;;;;;;12.74;100.00;100089.75;5033444;28;20052;-65
2023/10/24 10:41:38;;;;;;;9.45;4.53;;;;;;;12.77;100.00;100091.91;5019107;28;20044;-65
2023/10/24 10:44:39;;;;;;;7.25;3.55;;;;;;;12.76;100.00;100075.81;5032241;28;20123;-64
2023/10/24 10:47:31;;;;;;;7.57;4.25;;;;;;;12.74;100.00;100078.03;5041547;28;20434;-65
2023/10/24 10:50:30;;;;;;;9.13;4.13;;;;;;;12.72;100.00;100070.13;5073370;28;20044;-63
2023/10/24 10:53:30;;;;;;;9.93;4.35;;;;;;;12.72;100.00;100072.88;5060167;28;20052;-65
2023/10/24 10:56:23;;;;;;;8.40;4.07;;;;;;;12.70;100.00;100072.34;5041569;28;20049;-64
2023/10/24 10:59:40;;;;;;;8.30;3.95;;;;;;;12.68;100.00;100076.50;5046346;28;20048;-64
2023/10/24 11:02:51;;;;;;;8.32;4.35;;;;;;;12.66;100.00;100079.53;5061270;28;20041;-65
2023/10/24 11:05:40;;;;;;;6.30;3.33;;;;;;;12.68;100.00;100073.78;5057750;28;20083;-64
2023/10/24 11:08:28;;;;;;;8.43;3.53;;;;;;;12.71;100.00;100073.16;4367592;28;9999931;-64
2023/10/24 11:11:20;;;;;;;5.60;3.38;;;;;;;12.69;100.00;100070.72;5035503;28;20048;-66
2023/10/24 11:14:16;;;;;;;8.30;4.13;;;;;;;12.69;100.00;100073.44;5051668;28;20088;-67
2023/10/24 11:17:05;;;;;;;5.45;3.40;;;;;;;12.66;100.00;100074.06;5050219;28;20135;-64
2023/10/24 11:19:53;;;;;;;10.65;4.05;;;;;;;12.67;100.00;100070.19;5063530;28;20556;-64
2023/10/24 11:22:56;;;;;;;7.70;3.45;;;;;;;12.65;100.00;100064.25;5069636;28;20040;-65
2023/10/24 11:25:45;;;;;;;8.57;4.40;;;;;;;12.64;100.00;100067.28;5069311;28;20143;-65
2023/10/24 11:28:33;;;;;;;6.30;3.28;;;;;;;12.66;100.00;100071.31;5028894;28;20538;-65
2023/10/24 11:31:22;;;;;;;8.30;3.55;;;;;;;12.65;100.00;100069.72;5042732;28;20048;-65
2023/10/24 11:34:12;;;;;;;8.60;3.85;;;;;;;12.58;100.00;100075.56;5052452;28;20141;-66
2023/10/24 11:37:00;;;;;;;6.93;3.45;;;;;;;12.60;100.00;100069.78;5068975;28;20040;-65
2023/10/24 11:39:49;;;;;;;7.20;4.05;;;;;;;12.54;100.00;100068.25;5054081;28;20514;-65
2023/10/24 11:42:38;;;;;;;7.22;4.18;;;;;;;12.48;100.00;100078.47;5067878;28;20556;-65
2023/10/24 11:45:26;;;;;;;8.77;3.85;;;;;;;12.58;100.00;100081.03;5070002;28;20594;-65
2023/10/24 11:48:14;;;;;;;8.13;3.58;;;;;;;12.55;100.00;100075.34;5028202;28;20069;-65
2023/10/24 11:51:04;;;;;;;7.00;3.20;;;;;;;12.56;100.00;100074.25;5051216;28;20061;-64
2023/10/24 11:54:03;;;;;;;5.50;3.00;;;;;;;12.50;100.00;100073.50;5049575;28;20076;-65
2023/10/24 11:56:51;;;;;;;7.50;3.42;;;;;;;12.53;100.00;100064.72;5052700;28;20072;-62
2023/10/24 11:59:40;;;;;;;6.93;3.45;;;;;;;12.48;100.00;100072.19;5053617;28;20103;-60
2023/10/24 12:02:28;;;;;;;7.50;3.22;;;;;;;12.48;100.00;100075.75;5074765;28;20047;-58
2023/10/24 12:05:16;;;;;;;6.25;2.90;;;;;;;12.45;100.00;100070.06;5086605;28;20064;-63
2023/10/24 12:08:05;;;;;;;6.50;2.95;;;;;;;12.45;100.00;100075.53;5050337;28;20045;-63
2023/10/24 12:10:56;;;;;;;5.53;3.17;;;;;;;12.45;100.00;100070.06;5051613;28;20049;-62
2023/10/24 12:13:46;;;;;;;4.38;2.80;;;;;;;12.42;100.00;100059.72;5083741;28;20056;-61
2023/10/24 12:16:35;;;;;;;4.93;2.80;;;;;;;12.39;100.00;100058.41;5079824;28;20072;-65
2023/10/24 12:19:39;;;;;;;6.45;3.17;;;;;;;12.40;100.00;100057.28;5051427;28;20036;-65
2023/10/24 12:22:29;;;;;;;4.10;2.88;;;;;;;12.38;100.00;100053.22;5053029;28;20509;-65
2023/10/24 12:25:18;;;;;;;3.88;2.58;;;;;;;12.36;100.00;100040.69;5051952;28;20129;-65
2023/10/24 12:28:06;;;;;;;6.30;2.97;;;;;;;12.36;100.00;100037.97;5054088;28;20102;-65
2023/10/24 12:30:54;;;;;;;3.45;2.42;;;;;;;12.38;100.00;100037.66;5066561;28;20063;-66
2023/10/24 12:33:42;;;;;;;5.35;2.92;;;;;;;12.35;100.00;100030.84;5051739;28;20445;-65
2023/10/24 12:36:31;;;;;;;5.43;2.83;;;;;;;12.38;100.00;100034.09;5059322;28;20078;-64
2023/10/24 12:39:21;;;;;;;7.47;3.00;;;;;;;12.35;100.00;100036.31;5057867;28;20453;-63
2023/10/24 12:42:09;;;;;;;3.85;2.80;;;;;;;12.36;100.00;100037.97;5071736;28;20044;-64
2023/10/24 12:44:57;;;;;;;4.47;2.90;;;;;;;12.35;100.00;100039.06;5059237;28;20041;-65
2023/10/24 12:47:45;;;;;;;4.35;2.50;;;;;;;12.35;100.00;100030.84;5048114;28;20147;-65
2023/10/24 12:50:34;;;;;;;5.07;3.08;;;;;;;12.30;100.00;100041.88;5053192;28;20041;-65
2023/10/24 12:53:22;;;;;;;5.85;3.38;;;;;;;12.27;100.00;100042.47;5055028;28;20096;-63
2023/10/24 12:56:10;;;;;;;8.07;3.63;;;;;;;12.30;100.00;100030.94;5043024;28;20048;-64
2023/10/24 12:58:58;;;;;;;6.63;3.58;;;;;;;12.32;100.00;100041.59;5075898;28;20381;-63